• Join FlightAware (Why Join?)
  • Login
  • US Flag 
05:22PM EDT


 

Airport Tracker/Info


-or-


 

Live Flight TrackerFlight Track Log ✈ UPS376 ✈ 19-Jul-2014 ✈ KMIA - MNMG / MGA

Flight Track Log - Related Links

Times and Time Zones

All times are in EDT time to prevent confusion due to time zone crossing. See the UPS376 flight status page for this flight to view local times or setup timezone preferences in your user account.

Time Position Orientation Groundspeed Altitude Reporting Facility
EDT Latitude Longitude Course Direction KTS MPH feet Rate Location/Type
10:09AM 25.5932 -80.1821 208° Southwest 284 327 6,900  Level FlightAware ADS-B (KEYW)
10:09AM 25.5534 -80.2047 207° Southwest 288 331 8,100 2,400 Climbing FlightAware ADS-B (KEYW)
10:10AM 25.5170 -80.2251 207° Southwest 302 348 9,400 2,400 Climbing FlightAware ADS-B (KEYW)
10:10AM 25.4785 -80.2466 207° Southwest 320 368 10,500 2,280 Climbing FlightAware ADS-B (KEYW)
10:11AM 25.4356 -80.2704 207° Southwest 341 392 11,700 3,000 Climbing FlightAware ADS-B (KEYW)
10:11AM 25.3939 -80.2935 207° Southwest 350 403 13,500 2,700 Climbing FlightAware ADS-B (KEYW)
10:12AM 25.3446 -80.3152 200° South 388 447 14,400 2,280 Climbing FlightAware ADS-B (KEYW)
10:12AM 25.2913 -80.3341 197° South 407 468 15,800 2,820 Climbing FlightAware ADS-B (KEYW)
10:13AM 25.2356 -80.3522 197° South 420 483 17,300 2,820 Climbing FlightAware ADS-B (KEYW)
10:13AM 25.1786 -80.3706 197° South 433 498 18,700 2,880 Climbing FlightAware ADS-B (KEYW)
10:14AM 25.1189 -80.3898 197° South 442 509 20,200 2,760 Climbing FlightAware ADS-B (KEYW)
10:14AM 25.0608 -80.4088 197° South 454 522 21,500 2,580 Climbing FlightAware ADS-B (KEYW)
10:15AM 24.9985 -80.4293 197° South 463 533 22,800 2,400 Climbing FlightAware ADS-B (KEYW)
10:15AM 24.9357 -80.4498 197° South 474 545 23,900 2,340 Climbing FlightAware ADS-B (KEYW)
10:16AM 24.8712 -80.4714 198° South 481 554 25,200 2,460 Climbing FlightAware ADS-B (KEYW)
10:16AM 24.8061 -80.4933 197° South 489 563 26,400 2,280 Climbing FlightAware ADS-B (KEYW)
10:17AM 24.7401 -80.5152 197° South 497 572 27,500 2,160 Climbing FlightAware ADS-B (KEYW)
10:17AM 24.6729 -80.5375 197° South 504 580 28,600 2,580 Climbing FlightAware ADS-B (KEYW)
10:18AM 24.6058 -80.5599 197° South 498 573 30,100 2,880 Climbing FlightAware ADS-B (KEYW)
10:18AM 24.5402 -80.5817 197° South 493 567 31,500 2,700 Climbing FlightAware ADS-B (KEYW)
10:19AM 24.4756 -80.6031 197° South 490 564 32,800 2,220 Climbing FlightAware ADS-B (KEYW)
10:19AM 24.3763 -80.6359 197° South 489 563 34,300 1,740 Climbing FlightAware ADS-B (KEYW)
10:20AM 24.3115 -80.6573 198° South 488 562 35,000 660 Climbing FlightAware ADS-B (KEYW)
10:20AM 24.2477 -80.6813 201° Southwest 488 562 35,000  Level FlightAware ADS-B (KEYW)
10:21AM 24.1821 -80.7088 202° Southwest 486 559 35,000  Level FlightAware ADS-B (KEYW)
10:21AM 24.1201 -80.7354 202° Southwest 483 556 35,000  Level FlightAware ADS-B (KEYW)
10:22AM 24.0561 -80.7630 202° Southwest 484 557 35,000  Level FlightAware ADS-B (KEYW)
10:22AM 23.9938 -80.7899 202° Southwest 485 558 35,000 60 Level FlightAware ADS-B (KEYW)
10:23AM 23.9308 -80.8171 202° Southwest 484 557 35,100 60 Climbing FlightAware ADS-B (KEYW)
10:24AM 23.8363 -80.8578 202° Southwest 484 557 35,100  Level FlightAware ADS-B (KEYW)
10:24AM 23.7727 -80.8850 202° Southwest 484 557 35,100  Level FlightAware ADS-B (KEYW)
10:25AM 23.7095 -80.9121 202° Southwest 483 556 35,100 -120 Level FlightAware ADS-B (KEYW)
10:25AM 23.6476 -80.9385 202° Southwest 483 556 35,000 -120 Descending FlightAware ADS-B (KEYW)
10:26AM 23.5849 -80.9652 202° Southwest 482 555 35,000  Level FlightAware ADS-B (KEYW)
10:26AM 23.5223 -80.9920 202° Southwest 482 555 35,000  Level FlightAware ADS-B (KEYW)
10:27AM 23.4592 -81.0188 202° Southwest 482 555 35,000 60 Level FlightAware ADS-B (KEYW)
10:27AM 23.3963 -81.0456 202° Southwest 481 554 35,100  Climbing FlightAware ADS-B (KEYW)
10:28AM 23.3338 -81.0722 202° Southwest 480 552 35,000 -120 Descending FlightAware ADS-B (KEYW)
10:28AM 23.2707 -81.0990 202° Southwest 480 552 35,000  Level FlightAware ADS-B (KEYW)
10:29AM 23.2085 -81.1254 202° Southwest 482 555 35,000  Level FlightAware ADS-B (KEYW)
10:29AM 23.1461 -81.1518 202° Southwest 482 555 35,000 60 Level FlightAware ADS-B (KEYW)
10:30AM 23.0840 -81.1781 202° Southwest 483 556 35,100 60 Climbing FlightAware ADS-B (KEYW)
10:30AM 23.0207 -81.2049 202° Southwest 485 558 35,100  Level FlightAware ADS-B (KEYW)
10:31AM 22.9581 -81.2314 202° Southwest 486 559 35,100  Level FlightAware ADS-B (KEYW)
10:31AM 22.9049 -81.2538 202° Southwest 487 560 35,100  Level FlightAware ADS-B (KEYW)
10:32AM 22.8325 -81.2844 202° Southwest 487 560 35,100  Level FlightAware ADS-B (KEYW)
10:32AM 22.7683 -81.3114 202° Southwest 488 562 35,100  Level FlightAware ADS-B (KEYW)
10:33AM 22.7055 -81.3379 202° Southwest 488 562 35,100 -120 Level FlightAware ADS-B (KEYW)
10:33AM 22.6404 -81.3653 202° Southwest 489 563 35,000  Descending FlightAware ADS-B (KEYW)
10:34AM 22.5781 -81.3915 202° Southwest 488 562 35,100 60 Climbing FlightAware ADS-B (KEYW)
10:34AM 22.5198 -81.4159 202° Southwest 488 562 35,100 -120 Level FlightAware ADS-B (KEYW)
10:35AM 22.4501 -81.4451 202° Southwest 487 560 35,000 -120 Descending FlightAware ADS-B (KEYW)
10:35AM 22.3897 -81.4704 202° Southwest 487 560 35,000  Level FlightAware ADS-B (KEYW)
10:36AM 22.3234 -81.4982 202° Southwest 486 559 35,000 60 Level FlightAware ADS-B (KEYW)
10:36AM 22.2596 -81.5248 202° Southwest 487 560 35,100 60 Climbing FlightAware ADS-B (KEYW)
10:37AM 22.2473 -81.5300 202° Southwest 489 563 35,100 -60 Level FlightAware ADS-B (KEYW)
10:38AM 22.0119 -81.6282 202° Southwest 484 557 35,000 -60 Descending FlightAware ADS-B (KEYW)
10:39AM 21.8812 -81.6825 202° Southwest 477 549 35,000  Level FlightAware ADS-B (KEYW)
10:40AM 21.8418 -81.6989 202° Southwest 475 547 35,000 60 Level FlightAware ADS-B (KEYW)
10:40AM 21.7585 -81.7336 202° Southwest 472 543 35,100 60 Climbing FlightAware ADS-B (KEYW)
10:41AM 21.6968 -81.7591 202° Southwest 472 543 35,100  Level FlightAware ADS-B (KEYW)
10:41AM 21.6383 -81.7833 202° Southwest 472 543 35,100 -120 Level FlightAware ADS-B (KEYW)
10:42AM 21.5749 -81.8095 202° Southwest 472 543 35,000  Descending FlightAware ADS-B (KEYW)
10:42AM 21.5134 -81.8349 202° Southwest 473 544 35,100 60 Climbing FlightAware ADS-B (KEYW)
10:43AM 21.4505 -81.8608 202° Southwest 474 545 35,100  Level FlightAware ADS-B (KEYW)
10:43AM 21.4484 -81.8617 202° Southwest 474 545 35,100  Level FlightAware ADS-B (KEYW)
10:44AM 21.2913 -81.9266 202° Southwest 474 545 35,100  Level FlightAware ADS-B (KEYW)
10:45AM 21.1744 -81.9746 202° Southwest 474 545 35,100  Level FlightAware ADS-B (KEYW)
10:45AM 21.1622 -81.9797 202° Southwest 474 545 35,100  Level FlightAware ADS-B (KEYW)
10:46AM 21.0866 -82.0107 201° Southwest 474 545 35,100  Level FlightAware ADS-B (KEYW)
10:46AM 21.0210 -82.0376 201° Southwest 474 545 35,100  Level FlightAware ADS-B (KEYW)
10:49AM 20.7895 -82.1512 205° Southwest  Level Estimated
10:50AM 20.6834 -82.2032 205° Southwest  Level Estimated
10:51AM 20.5722 -82.2408 198° South  Level FlightAware Approximate
10:52AM 20.4610 -82.2784 198° South  Level FlightAware Approximate
10:53AM 20.3498 -82.3159 198° South  Level FlightAware Approximate
10:54AM 20.2386 -82.3534 198° South  Level FlightAware Approximate
10:55AM 20.1273 -82.3908 198° South  Level FlightAware Approximate
10:56AM 20.0216 -82.4433 205° Southwest  Level Estimated
10:57AM 19.9160 -82.4959 205° Southwest  Level FlightAware Approximate
10:58AM 19.8103 -82.5486 205° Southwest  Level FlightAware Approximate
10:59AM 19.7047 -82.6011 205° Southwest  Level FlightAware Approximate
11:00AM 19.5990 -82.6536 205° Southwest  Level FlightAware Approximate
11:01AM 19.4933 -82.7060 205° Southwest  Level FlightAware Approximate
11:02AM 19.3876 -82.7583 205° Southwest  Level FlightAware Approximate
11:03AM 19.2819 -82.8106 205° Southwest  Level FlightAware Approximate
11:04AM 19.1762 -82.8628 205° Southwest  Level FlightAware Approximate
11:05AM 19.0705 -82.9149 205° Southwest  Level FlightAware Approximate
11:06AM 18.9647 -82.9670 205° Southwest  Level FlightAware Approximate
11:07AM 18.8589 -83.0190 205° Southwest  Level FlightAware Approximate
11:08AM 18.7532 -83.0709 205° Southwest  Level FlightAware Approximate
11:09AM 18.6474 -83.1228 205° Southwest  Level FlightAware Approximate
11:10AM 18.5415 -83.1746 205° Southwest  Level FlightAware Approximate
11:11AM 18.4357 -83.2263 205° Southwest  Level FlightAware Approximate
11:12AM 18.3299 -83.2780 205° Southwest  Level FlightAware Approximate
11:13AM 18.2240 -83.3296 205° Southwest  Level FlightAware Approximate
11:14AM 18.1182 -83.3812 205° Southwest  Level FlightAware Approximate
11:15AM 18.0123 -83.4327 205° Southwest  Level FlightAware Approximate
11:16AM 17.9064 -83.4841 205° Southwest  Level FlightAware Approximate
11:17AM 17.8005 -83.5355 205° Southwest  Level FlightAware Approximate
11:18AM 17.6945 -83.5867 205° Southwest  Level FlightAware Approximate
11:19AM 17.5886 -83.6380 205° Southwest  Level FlightAware Approximate
11:20AM 17.4827 -83.6892 205° Southwest  Level FlightAware Approximate
11:21AM 17.3767 -83.7403 205° Southwest  Level FlightAware Approximate
11:22AM 17.2707 -83.7914 205° Southwest  Level FlightAware Approximate
11:23AM 17.1647 -83.8424 205° Southwest  Level FlightAware Approximate
11:24AM 17.0587 -83.8933 205° Southwest  Level FlightAware Approximate
11:25AM 16.9527 -83.9442 205° Southwest  Level FlightAware Approximate
11:26AM 16.8467 -83.9950 205° Southwest  Level FlightAware Approximate
11:27AM 16.7406 -84.0458 205° Southwest  Level FlightAware Approximate
11:28AM 16.6346 -84.0965 205° Southwest  Level FlightAware Approximate
11:29AM 16.5285 -84.1472 205° Southwest  Level FlightAware Approximate
11:30AM 16.4224 -84.1978 205° Southwest  Level FlightAware Approximate
11:31AM 16.3164 -84.2484 205° Southwest  Level FlightAware Approximate
11:32AM 16.2103 -84.2989 205° Southwest  Level FlightAware Approximate
11:33AM 16.1042 -84.3493 205° Southwest  Level FlightAware Approximate
11:34AM 15.9980 -84.3997 205° Southwest  Level FlightAware Approximate
11:35AM 15.8919 -84.4501 205° Southwest  Level FlightAware Approximate
11:36AM 15.7858 -84.5003 205° Southwest  Level FlightAware Approximate
11:37AM 15.6796 -84.5506 204° Southwest  Level FlightAware Approximate
11:38AM 15.5734 -84.6007 204° Southwest  Level FlightAware Approximate
11:39AM 15.4672 -84.6509 204° Southwest  Level FlightAware Approximate
11:40AM 15.3610 -84.7009 204° Southwest  Level FlightAware Approximate
11:41AM 15.2548 -84.7510 204° Southwest  Level FlightAware Approximate
11:42AM 15.1486 -84.8009 204° Southwest  Level FlightAware Approximate
11:43AM 15.0424 -84.8509 204° Southwest  Level FlightAware Approximate
11:44AM 14.9362 -84.9007 204° Southwest  Level FlightAware Approximate
11:45AM 14.8295 -84.9497 205° Southwest  Level Estimated
11:46AM 14.7242 -85.0015 205° Southwest  Level FlightAware Approximate
11:47AM 14.6188 -85.0532 205° Southwest  Level FlightAware Approximate
11:48AM 14.5134 -85.1048 205° Southwest  Level FlightAware Approximate
11:49AM 14.4080 -85.1564 205° Southwest  Level FlightAware Approximate
11:50AM 14.3026 -85.2080 205° Southwest  Level FlightAware Approximate
11:51AM 14.1956 -85.2560 201° Southwest  Level Estimated
11:52AM 14.0886 -85.3039 202° Southwest  Level Estimated
11:53AM 13.9800 -85.3478 201° Southwest  Level FlightAware Approximate
11:54AM 13.8731 -85.3959 206° Southwest  Level Estimated
11:55AM 13.7662 -85.4439 206° Southwest  Level Estimated
11:56AM 13.6593 -85.4919 206° Southwest  Level Estimated
11:57AM 13.5523 -85.5399 206° Southwest  Level Estimated
11:58AM 13.4535 -85.6036 212° Southwest  Level FlightAware Approximate
11:59AM 13.3460 -85.6501 200° South  Level Estimated
12:00PM 13.2385 -85.6966 206° Southwest  Level Estimated
12:01PM 13.1309 -85.7430 203° Southwest  Level Estimated
12:02PM 13.0234 -85.7894 201° Southwest  Level Estimated
12:03PM 12.9159 -85.8359 203° Southwest  Level FlightAware Approximate
12:04PM 12.8083 -85.8822 203° Southwest  Level Estimated
12:05PM 12.7008 -85.9285 202° Southwest  Level Estimated
12:06PM 12.5931 -85.9745 203° Southwest  Level FlightAware Approximate
12:07PM 12.4855 -86.0207 203° Southwest  Level Estimated
12:08PM 12.3764 -86.0629 201° Southwest  Level FlightAware Approximate
12:09PM 12.2696 -86.1108 201° Southwest  Level Estimated
12:10PM 12.1627 -86.1587 194° South  Level Estimated
12:11PM 12.1500 -86.1500 194° South  Level FlightAware Approximate
12:12PM 12.1415 -86.1682 194° South  Level Estimated
12:13PM 12.1415 -86.1682 194° South  Level Estimated
12:14PM 12.1415 -86.1682 194° South  Level Estimated
12:15PM 12.1415 -86.1682 194° South  Level Estimated
12:16PM 12.1415 -86.1682 194° South  Level Estimated
12:17PM 12.1415 -86.1682 194° South  Level Estimated
12:18PM 12.1415 -86.1682 194° South  Level Estimated
12:19PM 12.1415 -86.1682 194° South  Level Estimated
12:20PM 12.1415 -86.1682 194° South  Level Estimated
12:21PM 12.1415 -86.1682 194° South  Level Estimated
12:22PM 12.1415 -86.1682 194° South  Level Estimated
12:23PM 12.1415 -86.1682 194° South  Level Estimated
12:24PM 12.1415 -86.1682 194° South  Level Estimated
12:25PM 12.1415 -86.1682 194° South  Level Estimated
12:26PM 12.1415 -86.1682 194° South  Level Estimated
12:27PM 12.1415 -86.1682 194° South  Level Estimated
12:28PM 12.1415 -86.1682 194° South  Level Estimated
12:29PM 12.1415 -86.1682 194° South  Level Estimated